Time;durP1;ratioP1;P1;durP2;ratioP2;P2;SDS_P1;SDS_P2;PMS_P1;PMS_P2;Temp;Humidity;BMP_temperature;BMP_pressure;BME280_temperature;BME280_humidity;BME280_pressure;Samples;Min_cycle;Max_cycle;Signal;HPM_P1;HPM_P2
2021/08/08 00:01:10;;;;;;;1.00;0.60;;;;;;;13.39;96.75;95917.91;4942438;29;20047;-80
2021/08/08 00:03:36;;;;;;;1.55;0.70;;;;;;;13.39;96.78;95919.75;4940476;29;20035;-80
2021/08/08 00:06:02;;;;;;;0.60;0.50;;;;;;;13.40;96.66;95929.25;4948062;29;20089;-80
2021/08/08 00:08:30;;;;;;;2.28;0.63;;;;;;;13.40;96.70;95924.78;4945227;29;20039;-80
2021/08/08 00:10:56;;;;;;;1.00;0.60;;;;;;;13.40;96.57;95934.53;4945092;29;20034;-81
2021/08/08 00:13:23;;;;;;;0.55;0.50;;;;;;;13.41;96.41;95938.75;4938064;29;20368;-80
2021/08/08 00:15:50;;;;;;;2.45;0.70;;;;;;;13.41;96.41;95941.38;4941676;29;20066;-80
2021/08/08 00:18:16;;;;;;;1.52;0.80;;;;;;;13.40;96.39;95924.78;4945450;29;20492;-81
2021/08/08 00:20:42;;;;;;;0.77;0.40;;;;;;;13.41;96.41;95936.09;4948249;29;20054;-80
2021/08/08 00:23:08;;;;;;;1.75;0.60;;;;;;;13.42;96.51;95936.91;4941673;29;20031;-80
2021/08/08 00:25:34;;;;;;;0.55;0.55;;;;;;;13.39;96.56;95933.72;4957664;28;20043;-80
2021/08/08 00:28:01;;;;;;;1.88;0.60;;;;;;;13.40;96.38;95939.81;4945892;28;20178;-80
2021/08/08 00:30:27;;;;;;;1.33;0.60;;;;;;;13.41;96.41;95954.53;4965719;28;20039;-80
2021/08/08 00:32:54;;;;;;;2.92;0.70;;;;;;;13.42;96.38;95947.44;4954819;28;20042;-80
2021/08/08 00:35:20;;;;;;;0.50;0.50;;;;;;;13.41;96.23;95957.19;4968630;28;20050;-80
2021/08/08 00:37:48;;;;;;;3.30;1.10;;;;;;;13.40;95.95;95958.25;4965337;28;20038;-80
2021/08/08 00:40:19;;;;;;;0.80;0.60;;;;;;;13.37;95.90;95956.88;4965376;28;20047;-80
2021/08/08 00:42:46;;;;;;;1.17;0.70;;;;;;;13.36;95.77;95954.50;4965717;28;20047;-81
2021/08/08 00:45:15;;;;;;;1.30;0.60;;;;;;;13.35;95.69;95952.91;4969088;28;20038;-81
2021/08/08 00:47:42;;;;;;;1.55;0.60;;;;;;;13.32;95.64;95951.56;4955421;28;20039;-80
2021/08/08 00:50:09;;;;;;;2.33;0.70;;;;;;;13.30;95.56;95956.28;4948771;28;20058;-80
2021/08/08 00:52:35;;;;;;;1.42;0.50;;;;;;;13.27;95.49;95950.66;4941423;29;20048;-81
2021/08/08 00:55:02;;;;;;;1.50;0.60;;;;;;;13.25;95.36;95953.56;4951234;29;20499;-78
2021/08/08 00:57:28;;;;;;;2.22;0.60;;;;;;;13.24;95.31;95964.34;4962422;28;20043;-78
2021/08/08 00:59:54;;;;;;;2.83;0.60;;;;;;;13.20;95.18;95953.50;4963831;28;20038;-79
2021/08/08 01:02:21;;;;;;;1.48;0.60;;;;;;;13.17;95.06;95952.16;4947734;29;20058;-78
2021/08/08 01:04:55;;;;;;;0.55;0.50;;;;;;;13.14;94.72;95944.75;4966599;28;20050;-81
2021/08/08 01:07:30;;;;;;;0.93;0.60;;;;;;;13.12;94.62;95953.94;4945579;29;20046;-82
2021/08/08 01:10:00;;;;;;;1.25;0.60;;;;;;;13.09;94.74;95951.81;4938523;28;20051;-80
2021/08/08 01:12:27;;;;;;;1.88;0.65;;;;;;;13.05;94.53;95959.38;4963434;28;20054;-81
2021/08/08 01:14:56;;;;;;;0.38;0.38;;;;;;;13.04;94.55;95959.63;4946359;28;20042;-81
2021/08/08 01:17:23;;;;;;;0.68;0.60;;;;;;;13.03;94.65;95958.84;4958954;28;20042;-82
2021/08/08 01:20:04;;;;;;;2.15;0.47;;;;;;;13.03;94.64;95974.63;4967304;28;20047;-81
2021/08/08 01:22:32;;;;;;;1.23;0.60;;;;;;;13.02;94.67;95975.69;4966678;28;20456;-81
2021/08/08 01:25:00;;;;;;;1.58;0.60;;;;;;;13.03;94.85;95984.38;4963456;28;20059;-81
2021/08/08 01:27:27;;;;;;;1.08;0.50;;;;;;;13.03;94.73;95981.72;4948759;29;20035;-81
2021/08/08 01:29:55;;;;;;;0.88;0.50;;;;;;;13.03;94.96;95997.53;4962889;28;20050;-79
2021/08/08 01:32:22;;;;;;;0.60;0.50;;;;;;;13.03;94.64;95990.41;4956212;28;20042;-79
2021/08/08 01:34:48;;;;;;;0.63;0.50;;;;;;;13.02;94.91;95988.84;4951632;29;20032;-78
2021/08/08 01:37:18;;;;;;;1.60;0.50;;;;;;;13.03;94.67;95982.53;4962532;28;20043;-80
2021/08/08 01:39:52;;;;;;;1.52;0.65;;;;;;;13.02;94.52;95986.22;4962234;28;20480;-78
2021/08/08 01:42:19;;;;;;;0.88;0.60;;;;;;;13.01;94.37;95981.97;4944326;28;20396;-78
2021/08/08 01:44:54;;;;;;;1.85;1.15;;;;;;;13.01;94.29;95992.50;4957516;28;20396;-79
2021/08/08 01:47:31;;;;;;;0.40;0.40;;;;;;;13.00;94.35;95986.44;4953897;28;20059;-79
2021/08/08 01:49:58;;;;;;;0.80;0.60;;;;;;;12.98;94.30;95980.63;4969272;28;20054;-79
2021/08/08 01:52:25;;;;;;;1.10;0.65;;;;;;;12.98;94.18;95987.75;4959955;28;20491;-79
2021/08/08 01:54:54;;;;;;;0.55;0.50;;;;;;;12.95;94.04;95991.63;4974991;28;20468;-80
2021/08/08 01:57:20;;;;;;;1.23;0.65;;;;;;;12.92;94.15;95994.75;4964351;28;20030;-79
2021/08/08 01:59:46;;;;;;;1.00;0.57;;;;;;;12.90;94.10;95993.41;4947632;28;20047;-79
2021/08/08 02:02:15;;;;;;;1.40;0.55;;;;;;;12.89;93.98;95989.19;4960188;28;20456;-79
2021/08/08 02:04:43;;;;;;;0.70;0.60;;;;;;;12.87;93.92;95988.63;4946449;28;20035;-80
2021/08/08 02:07:12;;;;;;;0.77;0.60;;;;;;;12.84;93.86;95982.03;4969769;28;20479;-80
2021/08/08 02:09:39;;;;;;;1.08;0.65;;;;;;;12.82;93.73;95986.72;4967597;28;20026;-79
2021/08/08 02:12:06;;;;;;;0.50;0.50;;;;;;;12.80;93.77;95986.16;4946590;29;20063;-80
2021/08/08 02:14:32;;;;;;;0.88;0.55;;;;;;;12.79;93.68;95995.91;4954565;29;20047;-80
2021/08/08 02:16:59;;;;;;;1.00;0.47;;;;;;;12.77;93.64;95984.84;4931031;28;20042;-80
2021/08/08 02:19:25;;;;;;;1.42;0.50;;;;;;;12.76;93.72;95985.84;4947923;28;20058;-80
2021/08/08 02:21:51;;;;;;;2.47;0.90;;;;;;;12.75;93.76;95989.53;4954156;29;20356;-80
2021/08/08 02:24:18;;;;;;;0.40;0.40;;;;;;;12.75;93.67;95994.00;4965713;28;20039;-80
2021/08/08 02:26:44;;;;;;;0.70;0.70;;;;;;;12.73;93.62;95991.63;4948989;28;20130;-81
2021/08/08 02:29:10;;;;;;;1.25;0.70;;;;;;;12.72;93.61;96000.53;4927106;28;20058;-80
2021/08/08 02:31:42;;;;;;;0.77;0.60;;;;;;;12.71;93.56;96008.69;4953888;29;20480;-80
2021/08/08 02:34:09;;;;;;;0.68;0.43;;;;;;;12.69;93.57;96006.28;4949767;29;20080;-82
2021/08/08 02:36:35;;;;;;;1.20;0.63;;;;;;;12.66;93.37;96006.78;4949776;28;20047;-82
2021/08/08 02:39:03;;;;;;;1.35;0.55;;;;;;;12.64;93.51;96003.59;4942617;28;20499;-82
2021/08/08 02:41:29;;;;;;;0.77;0.60;;;;;;;12.62;93.35;96012.75;4952136;29;20043;-82
2021/08/08 02:43:56;;;;;;;1.65;0.50;;;;;;;12.61;93.35;96013.81;4935173;28;20407;-82
2021/08/08 02:46:23;;;;;;;1.65;0.68;;;;;;;12.58;93.23;96015.09;4948084;28;20035;-79
2021/08/08 02:48:49;;;;;;;0.88;0.60;;;;;;;12.55;93.10;96015.53;4958603;28;20437;-79
2021/08/08 02:51:16;;;;;;;;;;;;;;;12.52;92.21;96031.81;4970498;28;20031;-79
2021/08/08 02:53:42;;;;;;;;;;;;;;;12.48;92.51;96017.56;4969552;28;19962;-80
2021/08/08 02:56:08;;;;;;;;;;;;;;;12.46;92.77;96017.00;4969610;28;20331;-80
2021/08/08 02:58:34;;;;;;;;;;;;;;;12.46;92.75;96027.53;4965488;28;20041;-80
2021/08/08 03:01:00;;;;;;;;;;;;;;;12.43;92.45;96027.97;4965277;28;20005;-80
2021/08/08 03:03:25;;;;;;;;;;;;;;;12.42;92.30;96040.34;4949027;28;20336;-80
2021/08/08 03:05:51;;;;;;;;;;;;;;;12.41;92.34;96044.03;4964368;28;19982;-82
2021/08/08 03:08:17;;;;;;;;;;;;;;;12.39;92.21;96040.84;4972864;28;20016;-82
2021/08/08 03:10:43;;;;;;;;;;;;;;;12.36;92.65;96043.94;4962763;28;19970;-82
2021/08/08 03:13:09;;;;;;;;;;;;;;;12.34;92.47;96044.16;4965433;28;19978;-82
2021/08/08 03:15:35;;;;;;;;;;;;;;;12.33;92.49;96039.16;4963385;28;19990;-80
2021/08/08 03:18:01;;;;;;;;;;;;;;;12.29;92.33;96044.09;4964316;28;20034;-78
2021/08/08 03:20:27;;;;;;;;;;;;;;;12.27;92.08;96040.91;4970789;28;19966;-80
2021/08/08 03:22:52;;;;;;;;;;;;;;;12.26;91.70;96043.75;4939635;29;19977;-80
2021/08/08 03:25:18;;;;;;;;;;;;;;;12.24;91.92;96045.81;4951792;28;19994;-81
2021/08/08 03:27:45;;;;;;;;;;;;;;;12.23;92.40;96045.03;4965454;28;19974;-80
2021/08/08 03:30:11;;;;;;;;;;;;;;;12.19;92.62;96044.69;4932663;28;20288;-80
2021/08/08 03:32:37;;;;;;;;;;;;;;;12.17;92.55;96051.25;4965886;28;19966;-80
2021/08/08 03:35:06;;;;;;;;;;;;;;;12.15;92.64;96053.31;4953369;28;20343;-81
2021/08/08 03:37:32;;;;;;;;;;;;;;;12.14;92.54;96062.25;4958218;28;19970;-80
2021/08/08 03:39:58;;;;;;;;;;;;;;;12.14;92.63;96070.13;4942039;28;20064;-81
2021/08/08 03:42:24;;;;;;;;;;;;;;;12.14;92.83;96057.78;4955357;28;19977;-81
2021/08/08 03:44:52;;;;;;;;;;;;;;;12.13;92.71;96061.41;4930513;28;19986;-80
2021/08/08 03:47:18;;;;;;;;;;;;;;;12.13;92.60;96060.63;4949583;28;19974;-80
2021/08/08 03:49:44;;;;;;;;;;;;;;;12.12;93.04;96064.31;4958477;28;19974;-81
2021/08/08 03:52:10;;;;;;;;;;;;;;;12.10;92.83;96069.00;4946825;29;20014;-80
2021/08/08 03:54:36;;;;;;;;;;;;;;;12.09;92.84;96080.53;4957144;28;19966;-80
2021/08/08 03:57:02;;;;;;;;;;;;;;;12.07;92.88;96091.28;4969352;28;19967;-80
2021/08/08 03:59:28;;;;;;;;;;;;;;;12.05;93.22;96082.84;4967150;28;19974;-80
2021/08/08 04:01:54;;;;;;;;;;;;;;;12.05;93.07;96097.81;4949203;28;20187;-80
2021/08/08 04:04:19;;;;;;;;;;;;;;;12.03;92.77;96090.16;4948162;29;19983;-81
2021/08/08 04:06:45;;;;;;;;;;;;;;;12.02;92.84;96091.19;4948656;28;19966;-79
2021/08/08 04:09:11;;;;;;;;;;;;;;;12.03;92.88;96094.63;4946707;28;19975;-82
2021/08/08 04:11:37;;;;;;;;;;;;;;;12.03;92.62;96102.50;4963316;28;19970;-81
2021/08/08 04:14:03;;;;;;;;;;;;;;;12.02;92.75;96106.97;4961998;28;19975;-81
2021/08/08 04:16:29;;;;;;;;;;;;;;;12.02;92.36;96108.81;4939318;29;20380;-81
2021/08/08 04:18:55;;;;;;;;;;;;;;;12.00;92.52;96113.50;4965571;28;19978;-81
2021/08/08 04:21:21;;;;;;;;;;;;;;;11.98;92.44;96122.41;4941324;28;20350;-81
2021/08/08 04:23:47;;;;;;;;;;;;;;;11.99;92.53;96120.59;4954310;28;20017;-81
2021/08/08 04:26:12;;;;;;;;;;;;;;;12.00;92.73;96132.69;4948013;28;19994;-81
2021/08/08 04:28:41;;;;;;;;;;;;;;;12.00;93.47;96124.00;4929360;28;19971;-81
2021/08/08 04:31:08;;;;;;;;;;;;;;;12.00;93.03;96130.06;4964512;28;19971;-81
2021/08/08 04:33:35;;;;;;;;;;;;;;;12.00;92.95;96132.69;4967456;28;19974;-81
2021/08/08 04:36:02;;;;;;;;;;;;;;;12.00;93.34;96137.94;4929075;28;19963;-81
2021/08/08 04:38:28;;;;;;;;;;;;;;;12.02;93.87;96129.84;4932595;29;19970;-81
2021/08/08 04:40:53;;;;;;;;;;;;;;;12.00;94.40;96137.16;4937381;28;19970;-81
2021/08/08 04:43:19;;;;;;;;;;;;;;;12.00;94.28;96127.44;4960375;28;20017;-81
2021/08/08 04:45:45;;;;;;;;;;;;;;;12.09;94.19;96126.00;4932586;28;19987;-81
2021/08/08 04:48:11;;;;;;;;;;;;;;;12.19;93.82;96134.09;4946395;28;20042;-81
2021/08/08 04:50:37;;;;;;;;;;;;;;;12.31;93.83;96130.63;4952840;29;19970;-81
2021/08/08 04:53:03;;;;;;;;;;;;;;;12.41;94.51;96128.19;4930771;28;20408;-82
2021/08/08 04:55:29;;;;;;;;;;;;;;;12.52;94.72;96132.56;4930915;28;19967;-81
2021/08/08 04:57:54;;;;;;;;;;;;;;;12.69;94.38;96132.56;4928247;29;20431;-82
2021/08/08 05:00:20;;;;;;;;;;;;;;;12.92;93.82;96138.72;4937548;29;20006;-81
2021/08/08 05:02:47;;;;;;;;;;;;;;;13.24;93.34;96135.50;4945611;28;20493;-82
2021/08/08 05:05:13;;;;;;;;;;;;;;;13.59;91.45;96125.47;4951166;29;19982;-81
2021/08/08 05:07:40;;;;;;;;;;;;;;;13.99;89.96;96119.06;4968355;28;20364;-83
2021/08/08 05:10:10;;;;;;;;;;;;;;;14.40;88.44;96121.31;4946969;28;19967;-81
2021/08/08 05:12:36;;;;;;;;;;;;;;;14.79;86.75;96111.38;4956420;28;19963;-81
2021/08/08 05:15:03;;;;;;;;;;;;;;;15.12;84.81;96128.00;4929368;28;20450;-81
2021/08/08 05:17:30;;;;;;;;;;;;;;;15.37;83.74;96129.19;4946263;28;19969;-81
2021/08/08 05:19:56;;;;;;;;;;;;;;;15.60;80.52;96136.72;4949636;29;20397;-81
2021/08/08 05:22:22;;;;;;;;;;;;;;;15.82;81.81;96138.44;4936116;29;20054;-81
2021/08/08 05:24:48;;;;;;;;;;;;;;;16.08;80.40;96135.88;4954707;28;20037;-82
2021/08/08 05:27:14;;;;;;;;;;;;;;;16.23;77.69;96149.13;4963221;28;19967;-80
2021/08/08 05:29:40;;;;;;;;;;;;;;;16.22;75.64;96143.06;4948172;29;19982;-81
2021/08/08 05:32:06;;;;;;;;;;;;;;;16.37;78.06;96157.38;4960056;28;19985;-81
2021/08/08 05:34:32;;;;;;;;;;;;;;;16.63;78.42;96152.91;4960496;28;20423;-81
2021/08/08 05:36:58;;;;;;;;;;;;;;;16.86;76.58;96154.28;4957072;29;19978;-81
2021/08/08 05:39:24;;;;;;;;;;;;;;;16.90;74.94;96163.28;4939415;29;20038;-81
2021/08/08 05:41:49;;;;;;;;;;;;;;;17.08;75.13;96161.97;4968137;28;19971;-81
2021/08/08 05:44:15;;;;;;;;;;;;;;;17.20;73.94;96159.84;4953217;29;20404;-82
2021/08/08 05:46:41;;;;;;;;;;;;;;;17.40;74.12;96160.84;4959670;28;19975;-81
2021/08/08 05:49:08;;;;;;;;;;;;;;;17.63;73.61;96162.13;4959291;28;19971;-81
2021/08/08 05:51:36;;;;;;;;;;;;;;;17.77;73.52;96162.38;4948980;29;19967;-81
2021/08/08 05:54:02;;;;;;;;;;;;;;;17.96;73.64;96167.91;4970214;28;20415;-81
2021/08/08 05:56:28;;;;;;;;;;;;;;;18.12;71.09;96160.66;4952717;28;20332;-80
2021/08/08 05:58:54;;;;;;;;;;;;;;;18.24;71.07;96158.47;4960345;28;20346;-80
2021/08/08 06:01:20;;;;;;;;;;;;;;;18.37;70.94;96154.41;4973778;28;19967;-81
2021/08/08 06:03:46;;;;;;;;;;;;;;;18.62;71.45;96164.09;4947656;28;19970;-80
2021/08/08 06:06:12;;;;;;;;;;;;;;;18.94;70.94;96160.97;4966777;28;19983;-80
2021/08/08 06:08:38;;;;;;;;;;;;;;;19.23;69.42;96152.22;4971414;28;19975;-80
2021/08/08 06:11:04;;;;;;;;;;;;;;;19.44;68.70;96150.97;4952372;28;19966;-81
2021/08/08 06:13:30;;;;;;;;;;;;;;;19.65;68.69;96156.03;4958378;28;19986;-81
2021/08/08 06:15:56;;;;;;;;;;;;;;;19.49;67.58;96155.41;4949045;28;19971;-81
2021/08/08 06:18:22;;;;;;;;;;;;;;;19.52;66.50;96148.75;4959563;28;19973;-80
2021/08/08 06:20:48;;;;;;;;;;;;;;;19.63;66.76;96153.69;4973741;28;19967;-80
2021/08/08 06:23:14;;;;;;;;;;;;;;;19.74;66.65;96153.56;4966255;28;20072;-80
2021/08/08 06:25:40;;;;;;;;;;;;;;;19.70;66.52;96158.69;4962364;28;20001;-81
2021/08/08 06:28:06;;;;;;;;;;;;;;;19.84;65.75;96156.94;4971031;28;20483;-81
2021/08/08 06:30:32;;;;;;;;;;;;;;;19.92;68.00;96162.69;4967402;28;19963;-82
2021/08/08 06:32:58;;;;;;;;;;;;;;;19.90;66.25;96157.66;4961426;28;19982;-80
2021/08/08 06:35:23;;;;;;;;;;;;;;;19.97;68.55;96168.75;4967957;28;20029;-80
2021/08/08 06:37:49;;;;;;;;;;;;;;;19.86;64.31;96146.81;4943759;28;20057;-80
2021/08/08 06:40:15;;;;;;;;;;;;;;;19.74;62.80;96140.28;4975306;28;19976;-80
2021/08/08 06:42:41;;;;;;;;;;;;;;;19.51;65.67;96166.56;4945935;28;19982;-80
2021/08/08 06:45:07;;;;;;;;;;;;;;;19.38;68.84;96185.81;4964988;28;19993;-80
2021/08/08 06:47:33;;;;;;;;;;;;;;;19.33;67.15;96173.38;4971485;28;19963;-80
2021/08/08 06:50:00;;;;;;;;;;;;;;;19.50;67.22;96175.63;4966728;28;19967;-80
2021/08/08 06:52:26;;;;;;;;;;;;;;;19.68;66.37;96174.91;4965689;28;20351;-80
2021/08/08 06:54:51;;;;;;;;;;;;;;;19.78;63.09;96160.72;4967020;28;20025;-80
2021/08/08 06:57:27;;;;;;;;;;;;;;;19.40;65.30;96173.88;4958717;28;20458;-80
2021/08/08 06:59:53;;;;;;;;;;;;;;;19.38;64.19;96159.25;4965245;28;19989;-81
2021/08/08 07:02:19;;;;;;;;;;;;;;;19.06;63.40;96166.69;4971946;28;19978;-80
2021/08/08 07:04:45;;;;;;;;;;;;;;;18.74;67.19;96185.00;4958946;28;19978;-81
2021/08/08 07:07:11;;;;;;;;;;;;;;;18.42;69.09;96187.03;4944033;29;20061;-81
2021/08/08 07:09:37;;;;;;;;;;;;;;;18.15;70.02;96178.69;4965944;28;19974;-80
2021/08/08 07:12:03;;;;;;;;;;;;;;;17.88;71.08;96184.38;4952277;28;20005;-81
2021/08/08 07:14:33;;;;;;;;;;;;;;;17.70;69.70;96183.88;4951139;28;19966;-80
2021/08/08 07:16:59;;;;;;;;;;;;;;;17.61;70.37;96180.97;4949079;28;19970;-81
2021/08/08 07:19:25;;;;;;;;;;;;;;;17.97;69.68;96186.19;4965213;28;20331;-81
2021/08/08 07:21:54;;;;;;;;;;;;;;;18.39;70.05;96186.78;4930228;29;19974;-81
2021/08/08 07:24:20;;;;;;;;;;;;;;;18.81;67.89;96186.28;4954006;28;19977;-81
2021/08/08 07:26:47;;;;;;;;;;;;;;;19.10;63.78;96166.16;4966798;28;19994;-81
2021/08/08 07:29:13;;;;;;;;;;;;;;;19.33;65.91;96178.69;4933767;28;19981;-80
2021/08/08 07:31:39;;;;;;;;;;;;;;;19.63;65.25;96164.31;4948685;28;20343;-81
2021/08/08 07:34:05;;;;;;;;;;;;;;;19.96;65.39;96169.81;4964394;28;19971;-80
2021/08/08 07:36:31;;;;;;;;;;;;;;;20.12;62.58;96159.78;4973346;28;20347;-80
2021/08/08 07:38:57;;;;;;;;;;;;;;;20.19;62.56;96160.22;4970669;28;20057;-80
2021/08/08 07:41:23;;;;;;;;;;;;;;;20.17;60.34;96151.72;4952606;28;19962;-80
2021/08/08 07:43:49;;;;;;;;;;;;;;;20.10;61.67;96158.50;4931684;28;19971;-81
2021/08/08 07:46:14;;;;;;;;;;;;;;;20.14;61.13;96168.28;4951030;28;20342;-80
2021/08/08 07:48:40;;;;;;;;;;;;;;;19.98;62.28;96169.53;4957832;28;20443;-80
2021/08/08 07:51:06;;;;;;;;;;;;;;;19.61;64.33;96184.28;4955199;28;20014;-83
2021/08/08 07:53:33;;;;;;;;;;;;;;;19.46;62.58;96177.25;4932078;28;19977;-81
2021/08/08 07:55:59;;;;;;;;;;;;;;;19.24;64.48;96185.72;4968129;28;19974;-81
2021/08/08 07:58:25;;;;;;;;;;;;;;;19.12;65.06;96196.69;4951207;29;19967;-80
2021/08/08 08:00:51;;;;;;;;;;;;;;;19.35;65.43;96192.50;4964564;28;20411;-81
2021/08/08 08:03:17;;;;;;;;;;;;;;;19.65;61.98;96172.00;4949626;28;19974;-81
2021/08/08 08:05:42;;;;;;;;;;;;;;;19.64;62.96;96178.41;4964925;28;20022;-81
2021/08/08 08:08:09;;;;;;;;;;;;;;;19.21;63.83;96196.88;4932776;28;20074;-81
2021/08/08 08:10:36;;;;;;;;;;;;;;;18.75;64.77;96203.31;4948789;28;20339;-81
2021/08/08 08:13:02;;;;;;;;;;;;;;;18.84;67.34;96206.22;4930777;29;19966;-80
2021/08/08 08:15:28;;;;;;;;;;;;;;;19.08;64.94;96200.97;4937514;28;19981;-81
2021/08/08 08:17:54;;;;;;;;;;;;;;;19.45;63.82;96194.28;4967572;28;19967;-81
2021/08/08 08:20:20;;;;;;;;;;;;;;;19.89;64.10;96192.56;4946908;28;19967;-81
2021/08/08 08:22:47;;;;;;;;;;;;;;;19.97;62.71;96189.25;4946223;28;19970;-81
2021/08/08 08:25:12;;;;;;;;;;;;;;;19.91;63.83;96214.31;4956934;28;20001;-81
2021/08/08 08:27:39;;;;;;;;;;;;;;;19.76;61.48;96191.34;4963090;28;19971;-81
2021/08/08 08:30:06;;;;;;;;;;;;;;;19.68;63.48;96214.00;4947241;28;19978;-81
2021/08/08 08:32:31;;;;;;;;;;;;;;;19.64;64.19;96208.47;4938619;29;19993;-81
2021/08/08 08:35:02;;;;;;;;;;;;;;;19.51;63.16;96206.47;4966741;28;19966;-81
2021/08/08 08:37:31;;;;;;;;;;;;;;;19.32;64.25;96227.66;4946805;29;19998;-80
2021/08/08 08:39:58;;;;;;;;;;;;;;;19.06;63.81;96224.38;4950766;29;19974;-81
2021/08/08 08:42:26;;;;;;;;;;;;;;;18.85;63.60;96219.19;4966746;28;19974;-80
2021/08/08 08:44:53;;;;;;;;;;;;;;;18.63;63.98;96230.22;4957407;28;19977;-81
2021/08/08 08:47:21;;;;;;;;;;;;;;;18.53;64.95;96224.97;4945144;28;19978;-82
2021/08/08 08:49:48;;;;;;;;;;;;;;;18.56;64.53;96221.78;4932664;29;19977;-81
2021/08/08 08:52:19;;;;;;;;;;;;;;;18.75;61.70;96203.31;4962494;28;19969;-81
2021/08/08 08:54:45;;;;;;;;;;;;;;;18.94;64.10;96226.59;4969529;28;19978;-81
2021/08/08 08:57:11;;;;;;;;;;;;;;;19.06;59.87;96185.31;4934090;29;20347;-81
2021/08/08 08:59:37;;;;;;;;;;;;;;;19.26;60.14;96189.66;4941409;29;19975;-81
2021/08/08 09:02:04;;;;;;;;;;;;;;;19.55;60.50;96196.84;4953550;28;19977;-81
2021/08/08 09:04:31;;;;;;;;;;;;;;;19.82;61.65;96206.16;4944126;28;20370;-81
2021/08/08 09:06:56;;;;;;;;;;;;;;;19.86;57.30;96186.72;4961254;28;20380;-81
2021/08/08 09:09:22;;;;;;;;;;;;;;;19.85;59.21;96195.75;4949905;29;19971;-81
2021/08/08 09:11:50;;;;;;;;;;;;;;;19.71;58.56;96196.72;4957492;28;20330;-82
2021/08/08 09:14:16;;;;;;;;;;;;;;;19.55;59.15;96212.00;4957277;29;19963;-81
2021/08/08 09:16:43;;;;;;;;;;;;;;;19.41;59.59;96214.53;4935031;28;19981;-81
2021/08/08 09:19:20;;;;;;;;;;;;;;;19.36;61.48;96228.69;4951419;29;19971;-81
2021/08/08 09:21:46;;;;;;;;;;;;;;;19.33;58.75;96197.31;4941853;29;19970;-82
2021/08/08 09:24:21;;;;;;;;;;;;;;;19.31;57.68;96196.81;4964324;28;19966;-82
2021/08/08 09:26:47;;;;;;;;;;;;;;;19.31;59.52;96206.66;4942139;28;19993;-81
2021/08/08 09:29:15;;;;;;;;;;;;;;;19.33;60.51;96215.94;4950162;28;20372;-81
2021/08/08 09:31:50;;;;;;;;;;;;;;;19.43;59.82;96218.50;4952224;28;19973;-81
2021/08/08 09:34:35;;;;;;;;;;;;;;;19.57;59.72;96210.66;4934631;28;19969;-81
2021/08/08 09:37:02;;;;;;;;;;;;;;;19.74;60.46;96214.78;4929882;28;20427;-81
2021/08/08 09:39:48;;;;;;;;;;;;;;;19.92;58.04;96200.75;4967784;28;19963;-81
2021/08/08 09:42:15;;;;;;;;;;;;;;;19.99;58.31;96198.53;4968640;28;19963;-81
2021/08/08 09:44:51;;;;;;;;;;;;;;;19.98;55.07;96180.19;4959658;28;19973;-81
2021/08/08 09:47:17;;;;;;;;;;;;;;;20.04;55.81;96187.81;4936739;29;19985;-81
2021/08/08 09:49:43;;;;;;;;;;;;;;;19.98;54.87;96166.88;4969997;28;19971;-81
2021/08/08 09:52:09;;;;;;;;;;;;;;;20.00;55.69;96186.81;4951495;28;19974;-83
2021/08/08 09:54:36;;;;;;;;;;;;;;;20.08;52.76;96164.88;4967397;28;20327;-81
2021/08/08 09:57:03;;;;;;;;;;;;;;;20.18;53.65;96169.31;4933889;28;19985;-80
2021/08/08 09:59:29;;;;;;;;;;;;;;;20.23;55.80;96185.19;4967654;28;19966;-81
2021/08/08 10:01:55;;;;;;;;;;;;;;;20.24;52.93;96159.34;4944767;28;19975;-81
2021/08/08 10:04:23;;;;;;;;;;;;;;;20.30;54.41;96176.06;4949472;28;19966;-81
2021/08/08 10:06:49;;;;;;;;;;;;;;;20.42;51.70;96150.59;4946352;28;20366;-82
2021/08/08 10:09:16;;;;;;;;;;;;;;;20.61;50.70;96147.16;4951880;29;19992;-81
2021/08/08 10:11:46;;;;;;;;;;;;;;;20.86;50.84;96148.66;4952933;29;19971;-81
2021/08/08 10:14:13;;;;;;;;;;;;;;;21.05;49.16;96133.41;4969673;28;19973;-81
2021/08/08 10:16:43;;;;;;;;;;;;;;;21.27;48.74;96137.28;4945222;28;19973;-81
2021/08/08 10:19:10;;;;;;;;;;;;;;;21.38;52.37;96169.94;4967548;28;19966;-81
2021/08/08 10:21:41;;;;;;;;;;;;;;;21.53;50.47;96147.56;4959134;28;19962;-81
2021/08/08 10:24:08;;;;;;;;;;;;;;;21.68;50.62;96156.03;4949475;28;19981;-81
2021/08/08 10:26:35;;;;;;;;;;;;;;;21.60;48.23;96129.25;4968727;28;19983;-81
2021/08/08 10:29:02;;;;;;;;;;;;;;;21.60;49.43;96158.63;4958187;28;19966;-81
2021/08/08 10:31:30;;;;;;;;;;;;;;;21.59;47.72;96144.47;4971760;28;19967;-81
2021/08/08 10:33:56;;;;;;;;;;;;;;;21.64;46.55;96135.59;4962121;28;19985;-81
2021/08/08 10:36:24;;;;;;;;;;;;;;;21.62;47.40;96164.44;4967586;28;19966;-81
2021/08/08 10:38:51;;;;;;;;;;;;;;;21.32;47.12;96181.78;4957509;28;19989;-81
2021/08/08 10:41:17;;;;;;;;;;;;;;;21.31;49.35;96207.63;4974410;28;19993;-81
2021/08/08 10:43:46;;;;;;;;;;;;;;;21.47;49.23;96198.31;4949966;29;20248;-81
2021/08/08 10:46:13;;;;;;;;;;;;;;;21.61;46.77;96173.56;4952681;29;20474;-81
2021/08/08 10:48:40;;;;;;;;;;;;;;;21.49;45.03;96172.13;4934911;28;19970;-82
2021/08/08 10:51:16;;;;;;;;;;;;;;;21.36;45.52;96169.44;4951736;28;19966;-81
2021/08/08 10:53:42;;;;;;;;;;;;;;;21.25;46.44;96182.94;4949383;28;19977;-81
2021/08/08 10:56:09;;;;;;;;;;;;;;;21.24;48.33;96205.34;4950034;28;19978;-81
2021/08/08 10:58:37;;;;;;;;;;;;;;;21.37;47.85;96198.47;4958480;28;19962;-81
2021/08/08 11:01:19;;;;;;;;;;;;;;;21.57;49.37;96213.38;4945529;29;19970;-81
2021/08/08 11:03:49;;;;;;;;;;;;;;;21.85;47.89;96200.84;4945352;29;20339;-82
2021/08/08 11:06:41;;;;;;;;;;;;;;;21.91;44.58;96185.50;4943790;29;19982;-82
2021/08/08 11:09:07;;;;;;;;;;;;;;;21.92;45.59;96200.44;4940721;28;19973;-81
2021/08/08 11:11:35;;;;;;;;;;;;;;;22.07;45.18;96186.81;4967842;28;20431;-82
2021/08/08 11:14:11;;;;;;;;;;;;;;;22.10;45.79;96214.78;4948938;29;19967;-81
2021/08/08 11:16:38;;;;;;;;;;;;;;;22.08;45.07;96200.94;4967797;28;19993;-82
2021/08/08 11:19:04;;;;;;;;;;;;;;;22.04;45.67;96199.94;4952542;28;19973;-82
2021/08/08 11:21:30;;;;;;;;;;;;;;;22.11;46.01;96208.34;4945600;28;19969;-81
2021/08/08 11:23:58;;;;;;;;;;;;;;;22.04;45.46;96215.97;4949099;29;20330;-82
2021/08/08 11:26:24;;;;;;;;;;;;;;;21.89;45.26;96211.72;4963125;28;19991;-82
2021/08/08 11:28:54;;;;;;;;;;;;;;;21.93;42.74;96199.34;4960719;28;19971;-82
2021/08/08 11:31:21;;;;;;;;;;;;;;;22.20;44.80;96227.16;4975030;28;20031;-82
2021/08/08 11:33:54;;;;;;;;;;;;;;;22.35;44.93;96215.41;4972211;28;19963;-81
2021/08/08 11:36:31;;;;;;;;;;;;;;;22.36;41.84;96204.38;4956937;28;19967;-83
2021/08/08 11:38:58;;;;;;;;;;;;;;;22.49;44.87;96226.84;4968393;28;20015;-82
2021/08/08 11:41:24;;;;;;;;;;;;;;;22.64;43.39;96229.19;4945839;28;19982;-82
2021/08/08 11:44:07;;;;;;;;;;;;;;;22.82;41.51;96211.41;4965939;28;19966;-83
2021/08/08 11:46:34;;;;;;;;;;;;;;;22.76;42.86;96241.22;4969694;28;19989;-82
2021/08/08 11:48:59;;;;;;;;;;;;;;;22.57;40.54;96260.09;4966626;28;20419;-87
2021/08/08 11:51:26;;;;;;;;;;;;;;;22.47;41.16;96261.88;4935059;29;19967;-87
2021/08/08 11:53:52;;;;;;;;;;;;;;;22.59;39.35;96248.00;4968776;28;19970;-86
2021/08/08 11:56:22;;;;;;;;;;;;;;;22.79;42.00;96275.41;4964615;28;19966;-87
2021/08/08 11:58:53;;;;;;;;;;;;;;;22.80;40.41;96260.94;4958544;28;19966;-85
2021/08/08 12:01:20;;;;;;;;;;;;;;;22.86;42.56;96287.25;4968448;28;19970;-87
2021/08/08 12:03:46;;;;;;;;;;;;;;;22.79;44.21;96289.56;4965537;28;19971;-86
2021/08/08 12:06:12;;;;;;;;;;;;;;;22.41;40.93;96271.09;4949498;28;19982;-86
2021/08/08 12:08:39;;;;;;;;;;;;;;;22.26;45.08;96300.78;4929621;28;19966;-86
2021/08/08 12:11:05;;;;;;;;;;;;;;;22.43;45.69;96302.88;4944582;28;19974;-87
2021/08/08 12:13:31;;;;;;;;;;;;;;;22.47;44.96;96277.91;4968998;28;19966;-86
2021/08/08 12:15:57;;;;;;;;;;;;;;;22.65;45.48;96281.53;4951570;28;20466;-86
2021/08/08 12:18:30;;;;;;;;;;;;;;;22.84;44.81;96277.97;4931887;28;19975;-87
2021/08/08 12:20:56;;;;;;;;;;;;;;;22.91;42.61;96262.31;4963680;28;19977;-86
2021/08/08 12:23:24;;;;;;;;;;;;;;;22.99;45.55;96299.00;4973716;28;19963;-86
2021/08/08 12:26:00;;;;;;;;;;;;;;;23.09;42.61;96277.41;4947743;28;19986;-86
2021/08/08 12:28:26;;;;;;;;;;;;;;;23.13;40.73;96258.88;4967438;28;20440;-85